sensor_id;sensor_type;location;lat;lon;timestamp;P1;durP1;ratioP1;P2;durP2;ratioP2
769;SDS011;368;48.698;9.116;2024-03-08T00:00:17;31.40;;;20.43;;
769;SDS011;368;48.698;9.116;2024-03-08T00:02:45;27.83;;;18.83;;
769;SDS011;368;48.698;9.116;2024-03-08T00:05:12;28.80;;;19.20;;
769;SDS011;368;48.698;9.116;2024-03-08T00:07:41;29.33;;;19.53;;
769;SDS011;368;48.698;9.116;2024-03-08T00:10:09;30.53;;;20.27;;
769;SDS011;368;48.698;9.116;2024-03-08T00:12:38;31.60;;;20.70;;
769;SDS011;368;48.698;9.116;2024-03-08T00:15:07;29.63;;;18.90;;
769;SDS011;368;48.698;9.116;2024-03-08T00:17:34;27.77;;;18.63;;
769;SDS011;368;48.698;9.116;2024-03-08T00:20:03;27.30;;;18.70;;
769;SDS011;368;48.698;9.116;2024-03-08T00:22:33;30.70;;;19.77;;
769;SDS011;368;48.698;9.116;2024-03-08T00:25:01;31.17;;;20.27;;
769;SDS011;368;48.698;9.116;2024-03-08T00:27:28;28.60;;;19.03;;
769;SDS011;368;48.698;9.116;2024-03-08T00:29:58;29.23;;;19.70;;
769;SDS011;368;48.698;9.116;2024-03-08T00:32:25;31.33;;;19.67;;
769;SDS011;368;48.698;9.116;2024-03-08T00:34:52;28.30;;;19.43;;
769;SDS011;368;48.698;9.116;2024-03-08T00:37:19;27.13;;;18.23;;
769;SDS011;368;48.698;9.116;2024-03-08T00:39:47;27.57;;;19.50;;
769;SDS011;368;48.698;9.116;2024-03-08T00:42:14;28.40;;;19.00;;
769;SDS011;368;48.698;9.116;2024-03-08T00:44:41;28.07;;;19.17;;
769;SDS011;368;48.698;9.116;2024-03-08T00:47:10;31.13;;;20.20;;
769;SDS011;368;48.698;9.116;2024-03-08T00:49:37;30.43;;;19.97;;
769;SDS011;368;48.698;9.116;2024-03-08T00:52:04;30.50;;;19.93;;
769;SDS011;368;48.698;9.116;2024-03-08T00:54:33;33.40;;;21.93;;
769;SDS011;368;48.698;9.116;2024-03-08T00:57:01;32.03;;;22.37;;
769;SDS011;368;48.698;9.116;2024-03-08T00:59:28;33.33;;;19.77;;
769;SDS011;368;48.698;9.116;2024-03-08T01:01:57;29.80;;;19.87;;
769;SDS011;368;48.698;9.116;2024-03-08T01:04:26;27.43;;;18.50;;
769;SDS011;368;48.698;9.116;2024-03-08T01:06:54;30.43;;;20.00;;
769;SDS011;368;48.698;9.116;2024-03-08T01:09:21;31.00;;;21.03;;
769;SDS011;368;48.698;9.116;2024-03-08T01:11:48;29.63;;;20.13;;
769;SDS011;368;48.698;9.116;2024-03-08T01:14:15;30.97;;;19.83;;
769;SDS011;368;48.698;9.116;2024-03-08T01:16:42;30.93;;;18.60;;
769;SDS011;368;48.698;9.116;2024-03-08T01:19:09;27.80;;;19.20;;
769;SDS011;368;48.698;9.116;2024-03-08T01:21:37;30.27;;;20.67;;
769;SDS011;368;48.698;9.116;2024-03-08T01:24:04;26.20;;;18.10;;
769;SDS011;368;48.698;9.116;2024-03-08T01:26:31;28.37;;;19.13;;
769;SDS011;368;48.698;9.116;2024-03-08T01:28:59;30.80;;;20.17;;
769;SDS011;368;48.698;9.116;2024-03-08T01:31:28;31.03;;;19.40;;
769;SDS011;368;48.698;9.116;2024-03-08T01:33:55;27.50;;;18.40;;
769;SDS011;368;48.698;9.116;2024-03-08T01:36:22;31.90;;;17.97;;
769;SDS011;368;48.698;9.116;2024-03-08T01:38:51;30.83;;;19.33;;
769;SDS011;368;48.698;9.116;2024-03-08T01:41:18;26.93;;;19.03;;
769;SDS011;368;48.698;9.116;2024-03-08T01:43:45;27.30;;;18.47;;
769;SDS011;368;48.698;9.116;2024-03-08T01:46:13;30.70;;;20.10;;
769;SDS011;368;48.698;9.116;2024-03-08T01:48:47;31.70;;;19.90;;
769;SDS011;368;48.698;9.116;2024-03-08T01:51:15;27.23;;;19.53;;
769;SDS011;368;48.698;9.116;2024-03-08T01:53:42;31.10;;;19.40;;
769;SDS011;368;48.698;9.116;2024-03-08T01:56:13;28.97;;;18.40;;
769;SDS011;368;48.698;9.116;2024-03-08T01:58:41;29.83;;;19.37;;
769;SDS011;368;48.698;9.116;2024-03-08T02:01:08;30.60;;;18.03;;
769;SDS011;368;48.698;9.116;2024-03-08T02:03:39;26.70;;;19.50;;
769;SDS011;368;48.698;9.116;2024-03-08T02:06:09;27.93;;;18.37;;
769;SDS011;368;48.698;9.116;2024-03-08T02:08:38;29.93;;;18.77;;
769;SDS011;368;48.698;9.116;2024-03-08T02:11:05;30.90;;;19.23;;
769;SDS011;368;48.698;9.116;2024-03-08T02:13:33;34.83;;;20.33;;
769;SDS011;368;48.698;9.116;2024-03-08T02:16:00;32.50;;;20.80;;
769;SDS011;368;48.698;9.116;2024-03-08T02:18:28;31.03;;;19.70;;
769;SDS011;368;48.698;9.116;2024-03-08T02:20:57;28.60;;;20.00;;
769;SDS011;368;48.698;9.116;2024-03-08T02:23:25;29.17;;;20.70;;
769;SDS011;368;48.698;9.116;2024-03-08T02:25:53;28.57;;;18.67;;
769;SDS011;368;48.698;9.116;2024-03-08T02:28:21;29.20;;;18.67;;
769;SDS011;368;48.698;9.116;2024-03-08T02:30:50;30.73;;;19.10;;
769;SDS011;368;48.698;9.116;2024-03-08T02:33:19;25.60;;;18.00;;
769;SDS011;368;48.698;9.116;2024-03-08T02:35:47;26.67;;;18.97;;
769;SDS011;368;48.698;9.116;2024-03-08T02:38:15;32.47;;;18.10;;
769;SDS011;368;48.698;9.116;2024-03-08T02:40:44;32.70;;;19.80;;
769;SDS011;368;48.698;9.116;2024-03-08T02:43:11;30.07;;;20.00;;
769;SDS011;368;48.698;9.116;2024-03-08T02:45:39;28.10;;;18.93;;
769;SDS011;368;48.698;9.116;2024-03-08T02:48:09;26.40;;;16.97;;
769;SDS011;368;48.698;9.116;2024-03-08T02:50:36;24.87;;;18.33;;
769;SDS011;368;48.698;9.116;2024-03-08T02:53:04;26.03;;;16.67;;
769;SDS011;368;48.698;9.116;2024-03-08T02:55:33;28.23;;;17.17;;
769;SDS011;368;48.698;9.116;2024-03-08T02:58:00;26.03;;;17.30;;
769;SDS011;368;48.698;9.116;2024-03-08T03:00:28;28.20;;;17.27;;
769;SDS011;368;48.698;9.116;2024-03-08T03:02:55;29.30;;;19.20;;
769;SDS011;368;48.698;9.116;2024-03-08T03:05:23;26.90;;;17.27;;
769;SDS011;368;48.698;9.116;2024-03-08T03:07:50;28.13;;;17.23;;
769;SDS011;368;48.698;9.116;2024-03-08T03:10:17;27.43;;;18.23;;
769;SDS011;368;48.698;9.116;2024-03-08T03:12:46;26.43;;;18.10;;
769;SDS011;368;48.698;9.116;2024-03-08T03:15:13;26.47;;;17.20;;
769;SDS011;368;48.698;9.116;2024-03-08T03:17:45;29.10;;;17.47;;
769;SDS011;368;48.698;9.116;2024-03-08T03:20:12;26.53;;;19.10;;
769;SDS011;368;48.698;9.116;2024-03-08T03:22:39;25.83;;;16.90;;
769;SDS011;368;48.698;9.116;2024-03-08T03:25:07;25.90;;;18.77;;
769;SDS011;368;48.698;9.116;2024-03-08T03:27:35;28.83;;;18.40;;
769;SDS011;368;48.698;9.116;2024-03-08T03:30:04;25.77;;;17.50;;
769;SDS011;368;48.698;9.116;2024-03-08T03:32:46;24.57;;;16.73;;
769;SDS011;368;48.698;9.116;2024-03-08T03:35:13;24.17;;;16.80;;
769;SDS011;368;48.698;9.116;2024-03-08T03:37:40;25.03;;;17.13;;
769;SDS011;368;48.698;9.116;2024-03-08T03:40:10;26.47;;;17.33;;
769;SDS011;368;48.698;9.116;2024-03-08T03:42:38;27.07;;;17.37;;
769;SDS011;368;48.698;9.116;2024-03-08T03:45:08;26.73;;;17.47;;
769;SDS011;368;48.698;9.116;2024-03-08T03:47:35;25.83;;;17.53;;
769;SDS011;368;48.698;9.116;2024-03-08T03:50:04;25.43;;;16.90;;
769;SDS011;368;48.698;9.116;2024-03-08T03:52:32;25.53;;;17.83;;
769;SDS011;368;48.698;9.116;2024-03-08T03:54:58;27.40;;;17.80;;
769;SDS011;368;48.698;9.116;2024-03-08T03:57:25;23.80;;;17.13;;
769;SDS011;368;48.698;9.116;2024-03-08T03:59:52;24.10;;;16.73;;
769;SDS011;368;48.698;9.116;2024-03-08T04:02:20;25.93;;;16.77;;
769;SDS011;368;48.698;9.116;2024-03-08T04:04:47;25.23;;;17.63;;
769;SDS011;368;48.698;9.116;2024-03-08T04:07:14;28.23;;;19.00;;
769;SDS011;368;48.698;9.116;2024-03-08T04:09:42;24.43;;;16.50;;
769;SDS011;368;48.698;9.116;2024-03-08T04:12:09;27.97;;;18.43;;
769;SDS011;368;48.698;9.116;2024-03-08T04:14:36;27.30;;;17.33;;
769;SDS011;368;48.698;9.116;2024-03-08T04:17:02;24.47;;;16.90;;
769;SDS011;368;48.698;9.116;2024-03-08T04:19:32;25.97;;;17.07;;
769;SDS011;368;48.698;9.116;2024-03-08T04:22:00;23.20;;;16.70;;
769;SDS011;368;48.698;9.116;2024-03-08T04:24:27;28.60;;;18.97;;
769;SDS011;368;48.698;9.116;2024-03-08T04:26:56;27.83;;;18.40;;
769;SDS011;368;48.698;9.116;2024-03-08T04:29:23;26.00;;;17.30;;
769;SDS011;368;48.698;9.116;2024-03-08T04:31:51;24.77;;;17.37;;
769;SDS011;368;48.698;9.116;2024-03-08T04:34:19;24.50;;;17.33;;
769;SDS011;368;48.698;9.116;2024-03-08T04:36:47;27.27;;;16.10;;
769;SDS011;368;48.698;9.116;2024-03-08T04:39:14;26.93;;;17.40;;
769;SDS011;368;48.698;9.116;2024-03-08T04:41:43;28.57;;;18.30;;
769;SDS011;368;48.698;9.116;2024-03-08T04:44:10;25.17;;;17.60;;
769;SDS011;368;48.698;9.116;2024-03-08T04:46:38;29.77;;;19.47;;
769;SDS011;368;48.698;9.116;2024-03-08T04:49:06;31.50;;;20.03;;
769;SDS011;368;48.698;9.116;2024-03-08T04:51:33;25.50;;;15.80;;
769;SDS011;368;48.698;9.116;2024-03-08T04:54:01;24.93;;;16.80;;
769;SDS011;368;48.698;9.116;2024-03-08T04:56:29;27.47;;;18.83;;
769;SDS011;368;48.698;9.116;2024-03-08T04:58:56;28.83;;;18.03;;
769;SDS011;368;48.698;9.116;2024-03-08T05:01:23;24.67;;;17.33;;
769;SDS011;368;48.698;9.116;2024-03-08T05:03:50;28.13;;;16.27;;
769;SDS011;368;48.698;9.116;2024-03-08T05:06:20;29.57;;;18.80;;
769;SDS011;368;48.698;9.116;2024-03-08T05:08:48;27.67;;;19.10;;
769;SDS011;368;48.698;9.116;2024-03-08T05:11:17;28.77;;;18.13;;
769;SDS011;368;48.698;9.116;2024-03-08T05:13:44;28.53;;;18.40;;
769;SDS011;368;48.698;9.116;2024-03-08T05:16:11;28.63;;;17.43;;
769;SDS011;368;48.698;9.116;2024-03-08T05:18:40;26.83;;;16.40;;
769;SDS011;368;48.698;9.116;2024-03-08T05:21:08;26.10;;;17.13;;
769;SDS011;368;48.698;9.116;2024-03-08T05:23:35;30.40;;;19.90;;
769;SDS011;368;48.698;9.116;2024-03-08T05:26:03;24.47;;;17.40;;
769;SDS011;368;48.698;9.116;2024-03-08T05:28:32;27.55;;;18.73;;
769;SDS011;368;48.698;9.116;2024-03-08T05:30:58;24.30;;;16.60;;
769;SDS011;368;48.698;9.116;2024-03-08T05:33:25;31.42;;;19.27;;
769;SDS011;368;48.698;9.116;2024-03-08T05:35:52;29.03;;;20.27;;
769;SDS011;368;48.698;9.116;2024-03-08T05:38:19;26.65;;;17.15;;
769;SDS011;368;48.698;9.116;2024-03-08T05:40:46;28.02;;;18.80;;
769;SDS011;368;48.698;9.116;2024-03-08T05:43:13;29.17;;;17.93;;
769;SDS011;368;48.698;9.116;2024-03-08T05:45:44;28.40;;;17.47;;
769;SDS011;368;48.698;9.116;2024-03-08T05:48:10;30.63;;;19.50;;
769;SDS011;368;48.698;9.116;2024-03-08T05:50:38;25.27;;;17.25;;
769;SDS011;368;48.698;9.116;2024-03-08T05:53:05;24.07;;;17.40;;
769;SDS011;368;48.698;9.116;2024-03-08T05:55:32;28.50;;;18.47;;
769;SDS011;368;48.698;9.116;2024-03-08T05:58:00;26.95;;;17.92;;
769;SDS011;368;48.698;9.116;2024-03-08T06:00:29;25.65;;;17.17;;
769;SDS011;368;48.698;9.116;2024-03-08T06:02:57;29.00;;;18.37;;
769;SDS011;368;48.698;9.116;2024-03-08T06:05:25;22.97;;;17.77;;
769;SDS011;368;48.698;9.116;2024-03-08T06:07:52;26.43;;;18.70;;
769;SDS011;368;48.698;9.116;2024-03-08T06:10:19;33.78;;;21.00;;
769;SDS011;368;48.698;9.116;2024-03-08T06:12:46;31.83;;;19.17;;
769;SDS011;368;48.698;9.116;2024-03-08T06:15:13;30.00;;;19.30;;
769;SDS011;368;48.698;9.116;2024-03-08T06:17:41;29.70;;;19.77;;
769;SDS011;368;48.698;9.116;2024-03-08T06:20:11;30.60;;;20.10;;
769;SDS011;368;48.698;9.116;2024-03-08T06:22:38;34.20;;;21.23;;
769;SDS011;368;48.698;9.116;2024-03-08T06:25:06;35.23;;;21.60;;
769;SDS011;368;48.698;9.116;2024-03-08T06:27:33;29.42;;;19.75;;
769;SDS011;368;48.698;9.116;2024-03-08T06:30:00;30.03;;;20.00;;
769;SDS011;368;48.698;9.116;2024-03-08T06:32:26;33.50;;;20.90;;
769;SDS011;368;48.698;9.116;2024-03-08T06:34:53;28.73;;;22.60;;
769;SDS011;368;48.698;9.116;2024-03-08T06:37:21;31.20;;;21.40;;
769;SDS011;368;48.698;9.116;2024-03-08T06:39:48;32.63;;;19.50;;
769;SDS011;368;48.698;9.116;2024-03-08T06:42:16;31.20;;;19.63;;
769;SDS011;368;48.698;9.116;2024-03-08T06:44:44;26.43;;;18.17;;
769;SDS011;368;48.698;9.116;2024-03-08T06:47:14;32.13;;;20.30;;
769;SDS011;368;48.698;9.116;2024-03-08T06:49:41;31.83;;;21.27;;
769;SDS011;368;48.698;9.116;2024-03-08T06:52:08;34.70;;;21.40;;
769;SDS011;368;48.698;9.116;2024-03-08T06:54:36;30.03;;;20.67;;
769;SDS011;368;48.698;9.116;2024-03-08T06:57:03;33.70;;;22.03;;
769;SDS011;368;48.698;9.116;2024-03-08T06:59:31;29.07;;;19.87;;
769;SDS011;368;48.698;9.116;2024-03-08T07:01:58;31.03;;;20.67;;
769;SDS011;368;48.698;9.116;2024-03-08T07:04:25;30.40;;;20.63;;
769;SDS011;368;48.698;9.116;2024-03-08T07:06:54;34.17;;;25.10;;
769;SDS011;368;48.698;9.116;2024-03-08T07:09:22;33.90;;;21.40;;
769;SDS011;368;48.698;9.116;2024-03-08T07:11:51;31.40;;;20.50;;
769;SDS011;368;48.698;9.116;2024-03-08T07:14:20;28.57;;;18.93;;
769;SDS011;368;48.698;9.116;2024-03-08T07:16:48;30.93;;;19.77;;
769;SDS011;368;48.698;9.116;2024-03-08T07:19:15;28.50;;;20.47;;
769;SDS011;368;48.698;9.116;2024-03-08T07:21:42;30.20;;;20.87;;
769;SDS011;368;48.698;9.116;2024-03-08T07:24:09;28.33;;;19.50;;
769;SDS011;368;48.698;9.116;2024-03-08T07:26:54;28.73;;;18.73;;
769;SDS011;368;48.698;9.116;2024-03-08T07:29:20;30.90;;;20.50;;
769;SDS011;368;48.698;9.116;2024-03-08T07:31:47;25.10;;;19.40;;
769;SDS011;368;48.698;9.116;2024-03-08T07:34:23;32.47;;;20.43;;
769;SDS011;368;48.698;9.116;2024-03-08T07:36:49;24.93;;;18.00;;
769;SDS011;368;48.698;9.116;2024-03-08T07:39:16;31.80;;;19.83;;
769;SDS011;368;48.698;9.116;2024-03-08T07:41:44;26.10;;;17.93;;
769;SDS011;368;48.698;9.116;2024-03-08T07:44:12;24.20;;;17.70;;
769;SDS011;368;48.698;9.116;2024-03-08T07:46:39;25.50;;;17.97;;
769;SDS011;368;48.698;9.116;2024-03-08T07:49:06;29.40;;;19.27;;
769;SDS011;368;48.698;9.116;2024-03-08T07:51:36;26.53;;;18.40;;
769;SDS011;368;48.698;9.116;2024-03-08T07:54:02;25.43;;;19.37;;
769;SDS011;368;48.698;9.116;2024-03-08T07:56:29;28.20;;;18.33;;
769;SDS011;368;48.698;9.116;2024-03-08T07:58:56;29.30;;;19.30;;
769;SDS011;368;48.698;9.116;2024-03-08T08:01:25;28.13;;;20.20;;
769;SDS011;368;48.698;9.116;2024-03-08T08:03:51;27.87;;;19.17;;
769;SDS011;368;48.698;9.116;2024-03-08T08:06:18;27.13;;;17.57;;
769;SDS011;368;48.698;9.116;2024-03-08T08:08:45;24.77;;;17.33;;
769;SDS011;368;48.698;9.116;2024-03-08T08:11:12;25.93;;;18.37;;
769;SDS011;368;48.698;9.116;2024-03-08T08:13:40;26.20;;;18.17;;
769;SDS011;368;48.698;9.116;2024-03-08T08:16:08;26.17;;;18.90;;
769;SDS011;368;48.698;9.116;2024-03-08T08:18:37;26.40;;;18.40;;
769;SDS011;368;48.698;9.116;2024-03-08T08:21:04;29.70;;;18.20;;
769;SDS011;368;48.698;9.116;2024-03-08T08:23:31;31.10;;;18.93;;
769;SDS011;368;48.698;9.116;2024-03-08T08:25:58;27.60;;;17.50;;
769;SDS011;368;48.698;9.116;2024-03-08T08:28:25;29.97;;;19.80;;
769;SDS011;368;48.698;9.116;2024-03-08T08:30:52;28.90;;;19.63;;
769;SDS011;368;48.698;9.116;2024-03-08T08:33:19;24.00;;;16.50;;
769;SDS011;368;48.698;9.116;2024-03-08T08:35:47;25.83;;;16.57;;
769;SDS011;368;48.698;9.116;2024-03-08T08:38:16;27.30;;;17.80;;
769;SDS011;368;48.698;9.116;2024-03-08T08:40:45;26.37;;;19.43;;
769;SDS011;368;48.698;9.116;2024-03-08T08:43:12;24.20;;;16.23;;
769;SDS011;368;48.698;9.116;2024-03-08T08:45:39;25.63;;;17.23;;
769;SDS011;368;48.698;9.116;2024-03-08T08:48:07;25.43;;;16.27;;
769;SDS011;368;48.698;9.116;2024-03-08T08:50:35;20.73;;;15.80;;
769;SDS011;368;48.698;9.116;2024-03-08T08:53:04;26.83;;;17.63;;
769;SDS011;368;48.698;9.116;2024-03-08T08:55:32;25.27;;;16.97;;
769;SDS011;368;48.698;9.116;2024-03-08T08:58:00;20.83;;;15.60;;
769;SDS011;368;48.698;9.116;2024-03-08T09:00:28;26.30;;;16.00;;
769;SDS011;368;48.698;9.116;2024-03-08T09:02:56;24.77;;;16.73;;
769;SDS011;368;48.698;9.116;2024-03-08T09:05:23;25.00;;;17.23;;
769;SDS011;368;48.698;9.116;2024-03-08T09:07:51;22.67;;;16.70;;
769;SDS011;368;48.698;9.116;2024-03-08T09:10:20;24.23;;;16.60;;
769;SDS011;368;48.698;9.116;2024-03-08T09:12:46;24.77;;;17.30;;
769;SDS011;368;48.698;9.116;2024-03-08T09:15:13;25.17;;;16.63;;
769;SDS011;368;48.698;9.116;2024-03-08T09:17:42;21.27;;;16.10;;
769;SDS011;368;48.698;9.116;2024-03-08T09:20:10;19.60;;;14.17;;
769;SDS011;368;48.698;9.116;2024-03-08T09:22:39;21.77;;;15.00;;
769;SDS011;368;48.698;9.116;2024-03-08T09:25:07;19.80;;;15.20;;
769;SDS011;368;48.698;9.116;2024-03-08T09:27:36;27.20;;;16.13;;
769;SDS011;368;48.698;9.116;2024-03-08T09:30:05;21.80;;;14.47;;
769;SDS011;368;48.698;9.116;2024-03-08T09:32:32;21.90;;;15.40;;
769;SDS011;368;48.698;9.116;2024-03-08T09:34:59;21.20;;;15.07;;
769;SDS011;368;48.698;9.116;2024-03-08T09:37:26;19.30;;;13.30;;
769;SDS011;368;48.698;9.116;2024-03-08T09:39:53;19.33;;;15.23;;
769;SDS011;368;48.698;9.116;2024-03-08T09:42:20;22.90;;;15.90;;
769;SDS011;368;48.698;9.116;2024-03-08T09:44:48;20.50;;;14.83;;
769;SDS011;368;48.698;9.116;2024-03-08T09:47:15;19.40;;;14.60;;
769;SDS011;368;48.698;9.116;2024-03-08T09:49:42;19.13;;;14.70;;
769;SDS011;368;48.698;9.116;2024-03-08T09:52:09;17.90;;;14.10;;
769;SDS011;368;48.698;9.116;2024-03-08T09:54:37;22.57;;;14.67;;
769;SDS011;368;48.698;9.116;2024-03-08T09:57:04;20.47;;;13.93;;
769;SDS011;368;48.698;9.116;2024-03-08T09:59:34;19.73;;;14.67;;
769;SDS011;368;48.698;9.116;2024-03-08T10:02:19;18.23;;;13.47;;
769;SDS011;368;48.698;9.116;2024-03-08T10:04:46;18.73;;;15.10;;
769;SDS011;368;48.698;9.116;2024-03-08T10:07:13;18.43;;;13.97;;
769;SDS011;368;48.698;9.116;2024-03-08T10:09:40;20.30;;;14.27;;
769;SDS011;368;48.698;9.116;2024-03-08T10:12:12;19.60;;;14.27;;
769;SDS011;368;48.698;9.116;2024-03-08T10:14:39;20.77;;;14.27;;
769;SDS011;368;48.698;9.116;2024-03-08T10:17:08;19.63;;;13.43;;
769;SDS011;368;48.698;9.116;2024-03-08T10:19:36;18.70;;;14.33;;
769;SDS011;368;48.698;9.116;2024-03-08T10:22:04;19.60;;;13.07;;
769;SDS011;368;48.698;9.116;2024-03-08T10:24:31;17.30;;;12.03;;
769;SDS011;368;48.698;9.116;2024-03-08T10:27:00;19.47;;;13.73;;
769;SDS011;368;48.698;9.116;2024-03-08T10:29:29;19.83;;;14.40;;
769;SDS011;368;48.698;9.116;2024-03-08T10:31:57;16.77;;;12.23;;
769;SDS011;368;48.698;9.116;2024-03-08T10:34:24;19.77;;;15.63;;
769;SDS011;368;48.698;9.116;2024-03-08T10:36:53;18.60;;;13.70;;
769;SDS011;368;48.698;9.116;2024-03-08T10:39:26;19.10;;;13.90;;
769;SDS011;368;48.698;9.116;2024-03-08T10:42:00;18.23;;;13.00;;
769;SDS011;368;48.698;9.116;2024-03-08T10:44:37;20.37;;;14.83;;
769;SDS011;368;48.698;9.116;2024-03-08T10:47:14;19.40;;;13.10;;
769;SDS011;368;48.698;9.116;2024-03-08T10:49:47;19.63;;;14.07;;
769;SDS011;368;48.698;9.116;2024-03-08T10:52:21;19.50;;;14.00;;
769;SDS011;368;48.698;9.116;2024-03-08T10:54:49;19.57;;;13.70;;
769;SDS011;368;48.698;9.116;2024-03-08T10:57:19;20.30;;;13.47;;
769;SDS011;368;48.698;9.116;2024-03-08T10:59:47;20.93;;;13.70;;
769;SDS011;368;48.698;9.116;2024-03-08T11:02:15;18.87;;;13.50;;
769;SDS011;368;48.698;9.116;2024-03-08T11:04:45;17.87;;;13.47;;
769;SDS011;368;48.698;9.116;2024-03-08T11:07:14;18.03;;;12.50;;
769;SDS011;368;48.698;9.116;2024-03-08T11:09:46;19.53;;;14.00;;
769;SDS011;368;48.698;9.116;2024-03-08T11:12:21;17.90;;;13.10;;
769;SDS011;368;48.698;9.116;2024-03-08T11:14:50;21.30;;;12.90;;
769;SDS011;368;48.698;9.116;2024-03-08T11:17:20;21.50;;;14.07;;
769;SDS011;368;48.698;9.116;2024-03-08T11:19:48;19.60;;;15.20;;
769;SDS011;368;48.698;9.116;2024-03-08T11:22:20;19.03;;;14.50;;
769;SDS011;368;48.698;9.116;2024-03-08T11:24:51;17.50;;;13.00;;
769;SDS011;368;48.698;9.116;2024-03-08T11:27:18;18.73;;;14.00;;
769;SDS011;368;48.698;9.116;2024-03-08T11:29:58;17.90;;;13.40;;
769;SDS011;368;48.698;9.116;2024-03-08T11:32:33;19.43;;;13.43;;
769;SDS011;368;48.698;9.116;2024-03-08T11:35:01;15.33;;;13.40;;
769;SDS011;368;48.698;9.116;2024-03-08T11:37:33;17.03;;;14.13;;
769;SDS011;368;48.698;9.116;2024-03-08T11:40:02;17.10;;;13.57;;
769;SDS011;368;48.698;9.116;2024-03-08T11:42:43;17.53;;;13.77;;
769;SDS011;368;48.698;9.116;2024-03-08T11:45:11;16.03;;;13.43;;
769;SDS011;368;48.698;9.116;2024-03-08T11:47:38;17.00;;;13.57;;
769;SDS011;368;48.698;9.116;2024-03-08T11:50:09;15.90;;;12.60;;
769;SDS011;368;48.698;9.116;2024-03-08T11:52:37;17.13;;;13.33;;
769;SDS011;368;48.698;9.116;2024-03-08T11:55:06;14.43;;;12.30;;
769;SDS011;368;48.698;9.116;2024-03-08T11:57:33;15.00;;;12.10;;
769;SDS011;368;48.698;9.116;2024-03-08T12:00:01;16.70;;;12.90;;
769;SDS011;368;48.698;9.116;2024-03-08T12:02:32;16.97;;;14.67;;
769;SDS011;368;48.698;9.116;2024-03-08T12:05:00;15.40;;;11.90;;
769;SDS011;368;48.698;9.116;2024-03-08T12:07:29;17.07;;;13.80;;
769;SDS011;368;48.698;9.116;2024-03-08T12:10:17;16.00;;;13.83;;
769;SDS011;368;48.698;9.116;2024-03-08T12:12:46;14.53;;;12.73;;
769;SDS011;368;48.698;9.116;2024-03-08T12:15:15;17.13;;;12.77;;
769;SDS011;368;48.698;9.116;2024-03-08T12:17:43;18.43;;;14.77;;
769;SDS011;368;48.698;9.116;2024-03-08T12:20:16;18.60;;;13.90;;
769;SDS011;368;48.698;9.116;2024-03-08T12:22:46;16.73;;;13.03;;
769;SDS011;368;48.698;9.116;2024-03-08T12:25:14;16.40;;;13.90;;
769;SDS011;368;48.698;9.116;2024-03-08T12:27:43;16.27;;;13.43;;
769;SDS011;368;48.698;9.116;2024-03-08T12:30:18;16.47;;;14.13;;
769;SDS011;368;48.698;9.116;2024-03-08T12:32:51;15.67;;;13.03;;
769;SDS011;368;48.698;9.116;2024-03-08T12:35:21;15.23;;;13.57;;
769;SDS011;368;48.698;9.116;2024-03-08T12:37:50;17.50;;;14.27;;
769;SDS011;368;48.698;9.116;2024-03-08T12:40:21;17.97;;;14.33;;
769;SDS011;368;48.698;9.116;2024-03-08T12:42:53;17.20;;;14.97;;
769;SDS011;368;48.698;9.116;2024-03-08T12:45:20;17.20;;;14.90;;
769;SDS011;368;48.698;9.116;2024-03-08T12:47:49;17.10;;;13.00;;
769;SDS011;368;48.698;9.116;2024-03-08T12:50:16;16.17;;;14.47;;
769;SDS011;368;48.698;9.116;2024-03-08T12:52:43;17.70;;;13.73;;
769;SDS011;368;48.698;9.116;2024-03-08T12:55:10;17.43;;;13.70;;
769;SDS011;368;48.698;9.116;2024-03-08T12:57:43;16.83;;;14.50;;
769;SDS011;368;48.698;9.116;2024-03-08T13:00:12;18.43;;;15.50;;
769;SDS011;368;48.698;9.116;2024-03-08T13:02:44;18.20;;;15.27;;
769;SDS011;368;48.698;9.116;2024-03-08T13:05:10;17.53;;;14.70;;
769;SDS011;368;48.698;9.116;2024-03-08T13:07:39;17.73;;;14.80;;
769;SDS011;368;48.698;9.116;2024-03-08T13:10:11;18.63;;;14.70;;
769;SDS011;368;48.698;9.116;2024-03-08T13:12:41;20.30;;;14.50;;
769;SDS011;368;48.698;9.116;2024-03-08T13:15:07;16.20;;;13.50;;
769;SDS011;368;48.698;9.116;2024-03-08T13:17:36;18.30;;;14.50;;
769;SDS011;368;48.698;9.116;2024-03-08T13:20:05;19.03;;;15.17;;
769;SDS011;368;48.698;9.116;2024-03-08T13:22:34;20.03;;;15.87;;
769;SDS011;368;48.698;9.116;2024-03-08T13:25:01;19.07;;;15.50;;
769;SDS011;368;48.698;9.116;2024-03-08T13:27:28;16.53;;;14.43;;
769;SDS011;368;48.698;9.116;2024-03-08T13:29:56;20.13;;;15.63;;
769;SDS011;368;48.698;9.116;2024-03-08T13:32:23;18.27;;;14.83;;
769;SDS011;368;48.698;9.116;2024-03-08T13:34:51;15.60;;;14.00;;
769;SDS011;368;48.698;9.116;2024-03-08T13:37:19;16.77;;;14.30;;
769;SDS011;368;48.698;9.116;2024-03-08T13:39:46;18.37;;;14.20;;
769;SDS011;368;48.698;9.116;2024-03-08T13:42:13;17.57;;;14.87;;
769;SDS011;368;48.698;9.116;2024-03-08T13:44:44;16.03;;;14.37;;
769;SDS011;368;48.698;9.116;2024-03-08T13:47:13;17.97;;;15.40;;
769;SDS011;368;48.698;9.116;2024-03-08T13:49:40;19.07;;;15.40;;
769;SDS011;368;48.698;9.116;2024-03-08T13:52:08;17.27;;;14.90;;
769;SDS011;368;48.698;9.116;2024-03-08T13:54:37;21.53;;;16.47;;
769;SDS011;368;48.698;9.116;2024-03-08T13:57:04;19.37;;;15.10;;
769;SDS011;368;48.698;9.116;2024-03-08T13:59:32;21.43;;;16.60;;
769;SDS011;368;48.698;9.116;2024-03-08T14:02:00;21.60;;;16.33;;
769;SDS011;368;48.698;9.116;2024-03-08T14:04:28;21.07;;;14.60;;
769;SDS011;368;48.698;9.116;2024-03-08T14:06:55;20.07;;;16.30;;
769;SDS011;368;48.698;9.116;2024-03-08T14:09:28;19.00;;;15.17;;
769;SDS011;368;48.698;9.116;2024-03-08T14:11:55;19.03;;;15.63;;
769;SDS011;368;48.698;9.116;2024-03-08T14:14:23;21.67;;;16.03;;
769;SDS011;368;48.698;9.116;2024-03-08T14:16:50;18.23;;;15.00;;
769;SDS011;368;48.698;9.116;2024-03-08T14:19:20;21.77;;;15.83;;
769;SDS011;368;48.698;9.116;2024-03-08T14:21:48;20.20;;;14.80;;
769;SDS011;368;48.698;9.116;2024-03-08T14:24:18;19.93;;;14.80;;
769;SDS011;368;48.698;9.116;2024-03-08T14:26:45;17.90;;;14.87;;
769;SDS011;368;48.698;9.116;2024-03-08T14:29:13;17.40;;;15.00;;
769;SDS011;368;48.698;9.116;2024-03-08T14:31:40;17.33;;;14.17;;
769;SDS011;368;48.698;9.116;2024-03-08T14:34:08;17.30;;;14.80;;
769;SDS011;368;48.698;9.116;2024-03-08T14:36:35;18.77;;;14.67;;
769;SDS011;368;48.698;9.116;2024-03-08T14:39:04;20.37;;;16.37;;
769;SDS011;368;48.698;9.116;2024-03-08T14:41:32;19.17;;;14.57;;
769;SDS011;368;48.698;9.116;2024-03-08T14:43:59;18.40;;;15.00;;
769;SDS011;368;48.698;9.116;2024-03-08T14:46:26;16.73;;;14.10;;
769;SDS011;368;48.698;9.116;2024-03-08T14:48:53;21.07;;;14.70;;
769;SDS011;368;48.698;9.116;2024-03-08T14:51:21;20.47;;;14.40;;
769;SDS011;368;48.698;9.116;2024-03-08T14:53:51;20.87;;;15.97;;
769;SDS011;368;48.698;9.116;2024-03-08T14:56:21;21.20;;;14.00;;
769;SDS011;368;48.698;9.116;2024-03-08T14:58:47;17.80;;;15.30;;
769;SDS011;368;48.698;9.116;2024-03-08T15:01:16;21.73;;;15.67;;
769;SDS011;368;48.698;9.116;2024-03-08T15:03:47;20.00;;;14.50;;
769;SDS011;368;48.698;9.116;2024-03-08T15:06:14;19.40;;;13.60;;
769;SDS011;368;48.698;9.116;2024-03-08T15:08:45;19.33;;;14.13;;
769;SDS011;368;48.698;9.116;2024-03-08T15:11:12;20.23;;;14.70;;
769;SDS011;368;48.698;9.116;2024-03-08T15:13:47;19.87;;;14.80;;
769;SDS011;368;48.698;9.116;2024-03-08T15:16:18;19.13;;;15.13;;
769;SDS011;368;48.698;9.116;2024-03-08T15:18:48;17.67;;;13.90;;
769;SDS011;368;48.698;9.116;2024-03-08T15:21:17;20.20;;;16.40;;